Time;durP1;ratioP1;P1;durP2;ratioP2;P2;SDS_P1;SDS_P2;PMS_P1;PMS_P2;Temp;Humidity;BMP_temperature;BMP_pressure;BME280_temperature;BME280_humidity;BME280_pressure;Samples;Min_cycle;Max_cycle;Signal;HPM_P1;HPM_P2
2022/01/11 00:01:43;;;;;;;0.88;0.88;;;;;;;10.27;84.95;101258.59;6158724;23;20009;-75
2022/01/11 00:04:16;;;;;;;0.95;0.95;;;;;;;10.23;84.48;101251.97;6160547;23;20379;-74
2022/01/11 00:06:46;;;;;;;0.85;0.85;;;;;;;10.26;85.41;101261.59;6186789;23;20001;-74
2022/01/11 00:09:30;;;;;;;0.82;0.82;;;;;;;10.21;84.99;101248.66;6186087;23;20024;-75
2022/01/11 00:11:56;;;;;;;0.75;0.75;;;;;;;10.26;84.66;101262.41;6138775;23;20096;-74
2022/01/11 00:14:22;;;;;;;1.00;1.00;;;;;;;10.19;85.32;101250.81;6159361;23;20332;-75
2022/01/11 00:16:50;;;;;;;0.70;0.70;;;;;;;10.21;84.77;101262.31;6185759;23;20008;-76
2022/01/11 00:19:18;;;;;;;0.77;0.77;;;;;;;10.23;85.24;101262.06;6185676;23;20012;-74
2022/01/11 00:21:48;;;;;;;0.70;0.70;;;;;;;10.19;85.16;101253.53;6135420;23;20499;-75
2022/01/11 00:24:30;;;;;;;0.60;0.60;;;;;;;10.30;85.05;101270.97;6160099;23;20001;-75
2022/01/11 00:27:01;;;;;;;0.60;0.60;;;;;;;10.35;84.83;101270.25;6160219;23;20088;-75
2022/01/11 00:29:28;;;;;;;0.60;0.60;;;;;;;10.37;84.40;101276.34;6186233;23;20305;-74
2022/01/11 00:31:56;;;;;;;0.90;0.90;;;;;;;10.38;84.73;101280.69;6186290;23;20355;-75
2022/01/11 00:34:23;;;;;;;1.02;1.02;;;;;;;10.30;85.09;101266.31;6189635;23;20003;-77
2022/01/11 00:36:51;;;;;;;0.77;0.77;;;;;;;10.35;84.52;101278.47;6191863;23;20005;-76
2022/01/11 00:39:17;;;;;;;0.60;0.60;;;;;;;10.37;85.41;101279.06;6139322;23;20089;-76
2022/01/11 00:41:44;;;;;;;0.82;0.82;;;;;;;10.45;84.99;101286.84;6139217;23;20005;-75
2022/01/11 00:44:10;;;;;;;0.68;0.68;;;;;;;10.43;84.51;101289.84;6190396;23;20013;-77
2022/01/11 00:46:36;;;;;;;1.45;1.45;;;;;;;10.44;84.43;101296.13;6160892;23;20015;-74
2022/01/11 00:49:02;;;;;;;1.45;1.40;;;;;;;10.37;84.68;101279.06;6161346;23;20001;-74
2022/01/11 00:51:28;;;;;;;1.27;1.27;;;;;;;10.35;84.74;101281.19;6186954;23;20444;-74
2022/01/11 00:53:54;;;;;;;1.67;1.58;;;;;;;10.38;84.39;101291.63;6136821;23;20012;-74
2022/01/11 00:56:19;;;;;;;4.25;1.17;;;;;;;10.35;84.91;101287.47;6136685;23;20012;-76
2022/01/11 00:58:47;;;;;;;1.10;1.10;;;;;;;10.33;84.48;101283.31;6115000;23;20139;-76
2022/01/11 01:01:14;;;;;;;1.08;1.08;;;;;;;10.30;85.01;101281.91;6164844;23;19997;-76
2022/01/11 01:03:42;;;;;;;1.27;1.27;;;;;;;10.29;84.72;101280.22;6115747;23;20060;-74
2022/01/11 01:06:11;;;;;;;0.70;0.70;;;;;;;10.37;84.43;101298.22;6182920;23;20005;-73
2022/01/11 01:08:46;;;;;;;0.77;0.77;;;;;;;10.35;85.26;101286.66;6184318;23;20415;-75
2022/01/11 01:11:11;;;;;;;0.70;0.70;;;;;;;10.30;85.07;101279.16;6157125;23;20004;-74
2022/01/11 01:13:37;;;;;;;0.77;0.77;;;;;;;10.39;84.96;101299.59;6180849;23;20459;-74
2022/01/11 01:16:03;;;;;;;0.47;0.47;;;;;;;10.41;84.96;101299.34;6181966;23;20008;-77
2022/01/11 01:18:30;;;;;;;0.70;0.70;;;;;;;10.38;84.73;101283.44;6182768;23;20005;-75
2022/01/11 01:20:56;;;;;;;0.70;0.70;;;;;;;10.45;85.05;101295.06;6155496;23;20388;-75
2022/01/11 01:23:26;;;;;;;0.50;0.50;;;;;;;10.46;84.92;101294.00;6134960;23;20009;-76
2022/01/11 01:26:17;;;;;;;0.63;0.63;;;;;;;10.35;84.75;101273.81;6183405;23;20001;-77
2022/01/11 01:28:43;;;;;;;0.60;0.60;;;;;;;10.51;84.53;101302.28;6160673;23;20061;-76
2022/01/11 01:31:09;;;;;;;0.60;0.60;;;;;;;10.41;85.25;101280.22;6195824;23;20015;-76
2022/01/11 01:33:45;;;;;;;0.60;0.60;;;;;;;10.41;84.95;101281.06;6173180;23;20428;-76
2022/01/11 01:36:11;;;;;;;0.40;0.40;;;;;;;10.54;84.70;101304.56;6196699;23;20024;-76
2022/01/11 01:38:49;;;;;;;;;;;;;;;;;;;;;
2022/01/11 01:41:20;;;;;;;4.10;0.80;;;;;;;10.55;85.07;101305.38;6188013;23;20365;-76
2022/01/11 01:43:51;;;;;;;0.70;0.70;;;;;;;10.45;84.26;101292.34;6157063;23;20088;-76
2022/01/11 01:46:17;;;;;;;0.77;0.77;;;;;;;10.50;84.84;101306.13;6181466;23;20290;-75
2022/01/11 01:48:43;;;;;;;0.93;0.93;;;;;;;10.41;84.78;101289.25;6182853;23;20005;-73
2022/01/11 01:51:10;;;;;;;0.57;0.57;;;;;;;10.46;84.51;101304.94;6183077;23;20067;-75
2022/01/11 01:53:41;;;;;;;0.68;0.68;;;;;;;10.44;84.49;101307.06;6158112;23;20009;-74
2022/01/11 01:56:10;;;;;;;0.55;0.55;;;;;;;10.45;84.80;101308.72;6184560;23;20005;-75
2022/01/11 01:58:43;;;;;;;0.75;0.75;;;;;;;10.41;84.89;101321.22;6180178;23;20005;-75
2022/01/11 02:01:14;;;;;;;0.50;0.50;;;;;;;10.38;85.08;101308.91;6158385;23;20088;-77
2022/01/11 02:03:41;;;;;;;0.52;0.52;;;;;;;10.38;84.89;101318.97;6154993;23;20011;-74
2022/01/11 02:06:15;;;;;;;8.38;1.00;;;;;;;10.39;85.15;101312.44;6183025;23;20495;-77
2022/01/11 02:08:42;;;;;;;0.45;0.45;;;;;;;10.41;84.42;101316.59;6157017;23;20405;-75
2022/01/11 02:11:08;;;;;;;0.60;0.60;;;;;;;10.43;84.54;101321.84;6157258;23;20009;-76
2022/01/11 02:13:34;;;;;;;2.55;0.32;;;;;;;10.49;84.70;101326.31;6129129;23;20035;-75
2022/01/11 02:16:00;;;;;;;0.30;0.30;;;;;;;10.53;84.89;101327.50;6158352;23;20005;-75
2022/01/11 02:18:27;;;;;;;0.20;0.20;;;;;;;10.54;84.50;101312.75;6185275;23;20051;-75
2022/01/11 02:20:56;;;;;;;0.30;0.30;;;;;;;10.57;84.49;101312.28;6181309;23;20009;-76
2022/01/11 02:23:22;;;;;;;0.35;0.35;;;;;;;10.62;84.23;101320.56;6158333;23;20031;-75
2022/01/11 02:25:51;;;;;;;0.30;0.30;;;;;;;10.62;84.23;101323.28;6160921;23;20004;-77
2022/01/11 02:28:20;;;;;;;0.55;0.55;;;;;;;10.61;84.03;101329.81;6160814;23;20012;-76
2022/01/11 02:30:46;;;;;;;0.63;0.63;;;;;;;10.57;84.41;101350.56;6160768;23;20005;-77
2022/01/11 02:33:23;;;;;;;0.47;0.47;;;;;;;10.56;84.34;101346.16;6135897;23;20079;-76
2022/01/11 02:35:51;;;;;;;0.40;0.40;;;;;;;10.51;84.80;101345.22;6139421;23;20077;-75
2022/01/11 02:38:17;;;;;;;0.20;0.20;;;;;;;10.58;84.87;101341.25;6156895;23;20012;-77
2022/01/11 02:40:45;;;;;;;0.20;0.20;;;;;;;10.57;84.20;101345.09;6187040;23;20005;-76
2022/01/11 02:43:13;;;;;;;0.10;0.10;;;;;;;10.57;84.25;101336.88;6185974;23;20008;-75
2022/01/11 02:45:38;;;;;;;0.17;0.17;;;;;;;10.61;84.25;101345.41;6185624;23;20001;-77
2022/01/11 02:48:07;;;;;;;0.10;0.10;;;;;;;10.64;84.32;101345.78;6106520;23;20312;-76
2022/01/11 02:50:35;;;;;;;0.52;0.52;;;;;;;10.65;84.14;101352.88;6161511;23;20012;-77
2022/01/11 02:53:03;;;;;;;0.30;0.30;;;;;;;10.65;84.51;101341.13;6187765;23;20008;-75
2022/01/11 02:55:29;;;;;;;0.20;0.20;;;;;;;10.66;84.76;101340.06;6137111;23;20009;-77
2022/01/11 02:57:55;;;;;;;0.20;0.20;;;;;;;10.62;84.17;101342.44;6162592;23;20016;-76
2022/01/11 03:00:38;;;;;;;;;;;;;;;;;;;;;
2022/01/11 03:03:25;;;;;;;0.10;0.10;;;;;;;10.72;84.14;101346.44;6184501;23;20084;-76
2022/01/11 03:05:56;;;;;;;0.30;0.30;;;;;;;10.72;84.58;101340.97;6134040;23;20415;-76
2022/01/11 03:08:24;;;;;;;0.10;0.10;;;;;;;10.77;84.37;101349.28;6160617;23;20001;-75
2022/01/11 03:10:51;;;;;;;0.10;0.10;;;;;;;10.79;84.17;101353.44;6158762;23;20016;-76
2022/01/11 03:13:21;;;;;;;0.30;0.30;;;;;;;10.78;84.46;101340.00;6185057;23;20009;-75
2022/01/11 03:15:48;;;;;;;0.35;0.35;;;;;;;10.79;83.94;101344.38;6185073;23;20094;-75
2022/01/11 03:18:14;;;;;;;0.60;0.60;;;;;;;10.75;84.30;101351.44;6158472;23;20001;-74
2022/01/11 03:20:42;;;;;;;0.40;0.40;;;;;;;10.81;84.53;101356.75;6186324;23;20009;-75
2022/01/11 03:23:17;;;;;;;0.30;0.30;;;;;;;10.80;84.03;101360.56;6186327;23;20407;-75
2022/01/11 03:25:44;;;;;;;0.30;0.30;;;;;;;10.80;84.53;101357.00;6185804;23;20026;-75
2022/01/11 03:28:12;;;;;;;0.22;0.22;;;;;;;10.83;83.69;101353.78;6163966;23;20407;-74
2022/01/11 03:30:38;;;;;;;0.30;0.30;;;;;;;10.84;84.03;101355.44;6197531;23;20008;-74
2022/01/11 03:33:07;;;;;;;0.47;0.47;;;;;;;10.84;84.22;101358.19;6174760;23;20013;-75
2022/01/11 03:35:33;;;;;;;0.57;0.57;;;;;;;10.78;84.03;101357.25;6176071;23;20009;-76
2022/01/11 03:38:01;;;;;;;0.73;0.73;;;;;;;10.80;84.15;101359.72;6150628;23;20009;-75
2022/01/11 03:40:35;;;;;;;0.40;0.40;;;;;;;10.76;83.84;101358.56;6196687;23;20001;-76
2022/01/11 03:43:00;;;;;;;0.30;0.30;;;;;;;10.80;84.15;101360.56;6134429;23;20001;-76
2022/01/11 03:45:27;;;;;;;0.40;0.40;;;;;;;10.79;84.03;101363.53;6158427;23;20092;-77
2022/01/11 03:47:56;;;;;;;0.47;0.47;;;;;;;10.87;84.17;101376.84;6159345;23;20001;-74
2022/01/11 03:50:25;;;;;;;0.20;0.20;;;;;;;10.80;84.32;101359.72;6190718;23;20021;-76
2022/01/11 03:53:11;;;;;;;0.50;0.50;;;;;;;10.76;83.43;101358.56;6169557;23;20036;-75
2022/01/11 03:55:51;;;;;;;0.70;0.70;;;;;;;10.77;84.18;101368.44;6167114;23;20033;-77
2022/01/11 03:58:17;;;;;;;0.30;0.30;;;;;;;10.78;83.60;101375.56;6163734;23;20323;-75
2022/01/11 04:00:51;;;;;;;0.22;0.22;;;;;;;10.73;83.96;101370.00;6167621;23;20001;-75
2022/01/11 04:03:17;;;;;;;0.40;0.40;;;;;;;10.69;83.80;101374.28;6157263;23;20450;-74
2022/01/11 04:05:45;;;;;;;0.30;0.30;;;;;;;10.67;84.15;101371.78;6133271;23;20016;-74
2022/01/11 04:08:13;;;;;;;0.40;0.40;;;;;;;10.65;83.69;101374.78;6158600;23;20060;-75
2022/01/11 04:10:39;;;;;;;0.22;0.22;;;;;;;10.63;83.83;101370.59;6183795;23;20001;-77
2022/01/11 04:13:05;;;;;;;0.38;0.30;;;;;;;10.68;83.52;101378.13;6156488;23;20015;-76
2022/01/11 04:15:35;;;;;;;0.15;0.15;;;;;;;10.65;83.98;101387.63;6104953;23;20009;-77
2022/01/11 04:18:03;;;;;;;0.65;0.65;;;;;;;10.65;83.81;101385.72;6159956;23;20104;-77
2022/01/11 04:20:29;;;;;;;0.85;0.85;;;;;;;10.68;84.13;101394.53;6185776;23;20087;-77
2022/01/11 04:22:55;;;;;;;1.55;1.45;;;;;;;10.60;83.66;101382.91;6186594;23;19997;-77
2022/01/11 04:25:28;;;;;;;1.45;1.35;;;;;;;10.60;84.18;101393.84;6136960;23;20013;-77
2022/01/11 04:28:18;;;;;;;0.80;0.80;;;;;;;10.68;84.10;101410.94;6189151;23;20071;-76
2022/01/11 04:31:12;;;;;;;;;;;;;;;;;;;;;
2022/01/11 04:33:45;;;;;;;1.48;1.48;;;;;;;10.64;83.50;101422.38;6188254;23;20076;-77
2022/01/11 04:36:11;;;;;;;1.35;1.35;;;;;;;10.58;83.64;101422.50;6186706;23;20004;-76
2022/01/11 04:38:48;;;;;;;1.67;1.58;;;;;;;10.56;83.61;101425.47;6185732;23;20059;-76
2022/01/11 04:41:16;;;;;;;0.90;0.90;;;;;;;10.54;83.33;101422.16;6158921;23;20438;-75
2022/01/11 04:43:42;;;;;;;0.80;0.80;;;;;;;10.56;83.12;101430.94;6159234;23;20084;-76
2022/01/11 04:46:10;;;;;;;0.40;0.40;;;;;;;10.48;83.50;101418.47;6167220;23;20500;-77
2022/01/11 04:48:36;;;;;;;0.40;0.40;;;;;;;10.56;83.12;101430.13;6166700;23;20011;-77
2022/01/11 04:51:04;;;;;;;0.32;0.32;;;;;;;10.50;83.96;101414.66;6163948;23;20100;-76
2022/01/11 04:53:30;;;;;;;0.20;0.20;;;;;;;10.56;83.34;101430.13;6168751;23;20040;-76
2022/01/11 04:56:26;;;;;;;;;;;;;;;;;;;;;
2022/01/11 04:58:56;;;;;;;0.40;0.38;;;;;;;10.45;83.74;101424.44;6194983;23;20436;-76
2022/01/11 05:01:24;;;;;;;0.22;0.22;;;;;;;10.51;83.24;101433.56;6186750;23;20055;-77
2022/01/11 05:03:50;;;;;;;0.20;0.20;;;;;;;10.44;83.88;101421.91;6160378;23;20004;-77
2022/01/11 05:06:15;;;;;;;0.30;0.30;;;;;;;10.52;83.62;101440.69;6159736;23;20005;-76
2022/01/11 05:08:44;;;;;;;0.30;0.30;;;;;;;10.42;83.99;101429.53;6159902;23;20005;-77
2022/01/11 05:11:12;;;;;;;0.10;0.10;;;;;;;10.47;83.91;101440.59;6159525;23;20016;-77
2022/01/11 05:13:38;;;;;;;0.20;0.20;;;;;;;10.38;83.84;101422.88;6135571;23;20013;-76
2022/01/11 05:16:03;;;;;;;0.30;0.30;;;;;;;10.35;83.36;101428.84;6134416;23;20063;-77
2022/01/11 05:18:30;;;;;;;0.40;0.40;;;;;;;10.33;83.59;101436.44;6159337;23;20103;-75
2022/01/11 05:20:56;;;;;;;0.50;0.50;;;;;;;10.33;83.26;101430.97;6186367;23;20012;-76
2022/01/11 05:23:24;;;;;;;0.40;0.40;;;;;;;10.30;83.36;101438.56;6160864;23;20001;-76
2022/01/11 05:26:01;;;;;;;0.40;0.40;;;;;;;10.18;83.42;101424.06;6136816;23;20005;-76
2022/01/11 05:28:39;;;;;;;;;;;;;;;;;;;;;
2022/01/11 05:31:05;;;;;;;0.20;0.20;;;;;;;10.11;83.33;101428.84;6195402;23;20032;-76
2022/01/11 05:33:31;;;;;;;0.50;0.50;;;;;;;10.05;83.39;101429.78;6172857;23;20004;-75
2022/01/11 05:36:01;;;;;;;0.20;0.20;;;;;;;10.01;83.74;101425.88;6174589;23;20005;-74
2022/01/11 05:38:27;;;;;;;0.25;0.25;;;;;;;10.00;83.69;101435.94;6145405;23;20013;-74
2022/01/11 05:40:54;;;;;;;0.20;0.20;;;;;;;9.98;83.60;101440.81;6162306;23;20009;-75
2022/01/11 05:43:23;;;;;;;0.30;0.30;;;;;;;9.92;83.57;101436.31;6113013;23;20008;-75
2022/01/11 05:45:50;;;;;;;0.30;0.30;;;;;;;9.88;83.19;101438.69;6189430;23;20076;-75
2022/01/11 05:48:16;;;;;;;0.30;0.30;;;;;;;9.91;83.74;101451.03;6187556;23;20013;-75
2022/01/11 05:50:43;;;;;;;0.52;0.52;;;;;;;9.81;83.20;101451.63;6149618;23;20152;-75
2022/01/11 05:53:09;;;;;;;0.35;0.35;;;;;;;9.78;83.37;101452.09;6179292;23;20020;-75
2022/01/11 05:55:34;;;;;;;0.30;0.30;;;;;;;9.79;83.63;101453.75;6158273;23;20028;-75
2022/01/11 05:58:10;;;;;;;;;;;;;;;;;;;;;
2022/01/11 06:00:49;;;;;;;;;;;;;;;;;;;;;
2022/01/11 06:03:17;;;;;;;4.57;0.47;;;;;;;9.81;83.67;101467.19;6191890;23;20434;-75
2022/01/11 06:05:42;;;;;;;0.40;0.40;;;;;;;9.75;83.90;101466.22;6163850;23;20081;-76
2022/01/11 06:08:08;;;;;;;0.40;0.40;;;;;;;9.62;83.34;101453.59;6186574;23;20051;-75
2022/01/11 06:10:39;;;;;;;0.70;0.70;;;;;;;9.64;83.85;101462.41;6159770;23;20013;-74
2022/01/11 06:13:07;;;;;;;0.73;0.73;;;;;;;9.58;83.46;101447.78;6160096;23;20008;-75
2022/01/11 06:15:40;;;;;;;0.55;0.55;;;;;;;9.60;84.24;101462.03;6134651;23;20012;-74
2022/01/11 06:18:08;;;;;;;0.60;0.60;;;;;;;9.60;83.41;101472.94;6158649;23;20392;-76
2022/01/11 06:20:34;;;;;;;4.18;0.90;;;;;;;9.56;84.13;101477.25;6159335;23;20559;-73
2022/01/11 06:23:02;;;;;;;0.60;0.60;;;;;;;9.57;83.85;101484.34;6158700;23;20032;-73
2022/01/11 06:25:28;;;;;;;1.60;0.85;;;;;;;9.55;83.43;101481.03;6159549;23;20028;-73
2022/01/11 06:27:53;;;;;;;0.60;0.60;;;;;;;9.51;84.25;101474.38;6158538;23;20428;-73
2022/01/11 06:30:20;;;;;;;0.70;0.70;;;;;;;9.53;83.81;101477.69;6134285;23;20020;-77
2022/01/11 06:32:46;;;;;;;0.52;0.52;;;;;;;9.63;83.79;101479.03;6133723;23;20527;-76
2022/01/11 06:35:18;;;;;;;0.60;0.60;;;;;;;9.55;83.76;101470.09;6160576;23;20059;-76
2022/01/11 06:37:44;;;;;;;0.40;0.40;;;;;;;9.54;83.52;101473.91;6139051;23;20040;-74
2022/01/11 06:40:22;;;;;;;0.57;0.57;;;;;;;9.54;83.95;101473.91;6138999;23;20062;-76
2022/01/11 06:42:52;;;;;;;0.50;0.50;;;;;;;9.54;83.93;101479.34;6114959;23;20005;-73
2022/01/11 06:45:18;;;;;;;0.50;0.50;;;;;;;9.47;83.63;101477.81;6160596;23;20005;-74
2022/01/11 06:47:44;;;;;;;0.60;0.60;;;;;;;9.47;83.77;101484.09;6160794;23;20416;-74
2022/01/11 06:50:21;;;;;;;0.60;0.60;;;;;;;9.48;84.09;101502.13;6161168;23;20005;-76
2022/01/11 06:52:47;;;;;;;0.40;0.40;;;;;;;9.46;83.39;101493.34;6165073;23;20001;-75
2022/01/11 06:55:15;;;;;;;0.43;0.43;;;;;;;9.48;84.19;101496.69;6138009;23;20093;-77
2022/01/11 06:57:40;;;;;;;0.20;0.20;;;;;;;9.52;83.83;101500.63;6160279;23;20013;-75
2022/01/11 07:00:09;;;;;;;0.40;0.32;;;;;;;9.60;83.86;101502.16;6185262;23;20051;-75
2022/01/11 07:02:37;;;;;;;0.30;0.30;;;;;;;9.64;83.57;101510.72;6160450;23;20009;-75
2022/01/11 07:05:04;;;;;;;0.60;0.60;;;;;;;9.65;84.16;101513.25;6159563;23;20005;-74
2022/01/11 07:07:38;;;;;;;0.68;0.68;;;;;;;9.61;84.17;101507.41;6155242;23;20368;-72
2022/01/11 07:10:04;;;;;;;1.10;1.10;;;;;;;9.65;83.89;101523.31;6153390;23;20065;-72
2022/01/11 07:12:32;;;;;;;1.10;1.10;;;;;;;9.60;83.68;101519.38;6158851;23;20020;-74
2022/01/11 07:15:16;;;;;;;1.65;1.55;;;;;;;9.55;83.44;101524.72;6131714;23;20047;-73
2022/01/11 07:17:42;;;;;;;1.95;1.85;;;;;;;9.59;83.83;101530.53;6157320;23;20004;-72
2022/01/11 07:20:08;;;;;;;2.10;2.00;;;;;;;9.51;83.28;101520.78;6153684;23;20017;-74
2022/01/11 07:22:36;;;;;;;1.38;1.38;;;;;;;9.51;84.10;101518.06;6157054;23;20008;-73
2022/01/11 07:25:13;;;;;;;1.27;1.27;;;;;;;9.50;84.12;101521.84;6179535;23;20001;-73
2022/01/11 07:27:48;;;;;;;1.90;1.80;;;;;;;9.57;83.89;101528.03;6156187;23;20001;-76
2022/01/11 07:30:13;;;;;;;1.70;1.60;;;;;;;9.57;83.56;101533.50;6141296;23;20252;-75
2022/01/11 07:32:39;;;;;;;2.17;1.98;;;;;;;9.55;83.98;101535.66;6192402;23;20020;-77
2022/01/11 07:35:05;;;;;;;2.38;2.28;;;;;;;9.51;83.53;101541.81;6161401;23;20008;-76
2022/01/11 07:37:31;;;;;;;2.22;2.13;;;;;;;9.54;83.86;101549.53;6165272;23;20041;-76
2022/01/11 07:39:56;;;;;;;2.85;2.55;;;;;;;9.51;84.01;101548.09;6162642;23;20020;-76
2022/01/11 07:42:55;;;;;;;8.13;2.20;;;;;;;9.50;83.93;101554.59;6134639;23;20308;-76
2022/01/11 07:45:21;;;;;;;2.28;2.17;;;;;;;9.36;83.32;101543.06;6184264;23;20005;-76
2022/01/11 07:47:49;;;;;;;2.47;2.38;;;;;;;9.37;83.40;101547.44;6184109;23;20064;-71
2022/01/11 07:50:14;;;;;;;2.20;2.10;;;;;;;9.51;83.71;101574.56;6180975;23;20039;-73
2022/01/11 07:52:40;;;;;;;4.10;1.58;;;;;;;9.52;83.70;101565.28;6155935;23;20013;-71
2022/01/11 07:55:06;;;;;;;1.00;1.00;;;;;;;9.59;84.00;101579.69;6154681;23;20083;-73
2022/01/11 07:57:32;;;;;;;0.80;0.80;;;;;;;9.64;83.69;101582.56;6181744;23;20005;-74
2022/01/11 08:00:00;;;;;;;0.45;0.45;;;;;;;9.69;83.51;101579.97;6155219;23;20274;-73
2022/01/11 08:02:38;;;;;;;0.52;0.52;;;;;;;9.77;84.02;101579.66;6155891;23;20358;-72
2022/01/11 08:05:07;;;;;;;0.77;0.77;;;;;;;9.88;83.43;101588.94;6181004;23;20294;-73
2022/01/11 08:07:33;;;;;;;1.23;1.13;;;;;;;9.86;83.49;101585.63;6155469;23;20121;-73
2022/01/11 08:09:58;;;;;;;1.38;1.27;;;;;;;9.93;83.58;101600.03;6154529;23;20005;-73
2022/01/11 08:12:24;;;;;;;0.68;0.68;;;;;;;9.95;83.13;101599.78;6179629;23;20060;-72
2022/01/11 08:14:49;;;;;;;1.00;1.00;;;;;;;10.00;83.79;101601.81;6152961;23;20005;-73
2022/01/11 08:17:16;;;;;;;1.23;1.23;;;;;;;10.03;84.00;101612.28;6154851;23;20462;-73
2022/01/11 08:19:42;;;;;;;1.10;1.00;;;;;;;10.06;83.33;101611.81;6175964;23;20001;-72
2022/01/11 08:22:07;;;;;;;1.65;1.55;;;;;;;10.05;83.44;101610.97;6127192;23;20019;-72
2022/01/11 08:24:33;;;;;;;1.45;1.45;;;;;;;10.06;83.37;101612.66;6182933;23;20368;-72
2022/01/11 08:26:59;;;;;;;1.60;1.50;;;;;;;10.09;83.43;101619.53;6177269;23;20684;-73
2022/01/11 08:29:24;;;;;;;1.33;1.23;;;;;;;10.09;83.87;101625.00;6179643;23;20005;-72
2022/01/11 08:31:50;;;;;;;1.40;1.30;;;;;;;10.12;83.18;101630.03;6154949;23;20389;-72
2022/01/11 08:34:16;;;;;;;1.00;1.00;;;;;;;10.13;83.67;101627.06;6183006;23;20005;-72
2022/01/11 08:36:45;;;;;;;1.35;1.35;;;;;;;10.16;83.34;101622.19;6131108;23;20093;-73
2022/01/11 08:39:11;;;;;;;1.42;1.42;;;;;;;10.20;83.65;101628.84;6182326;23;20005;-73
2022/01/11 08:41:38;;;;;;;1.17;1.17;;;;;;;10.20;83.94;101635.13;6180361;23;20005;-73
2022/01/11 08:44:09;;;;;;;1.25;1.23;;;;;;;10.21;83.74;101636.81;6182554;23;20071;-72
2022/01/11 08:46:36;;;;;;;0.82;0.82;;;;;;;10.23;83.81;101631.94;6176051;23;20001;-73
2022/01/11 08:49:02;;;;;;;0.65;0.65;;;;;;;10.28;83.36;101634.81;6158311;23;20005;-73
2022/01/11 08:51:28;;;;;;;0.98;0.98;;;;;;;10.24;83.32;101625.41;6184698;23;20021;-72
2022/01/11 08:53:53;;;;;;;0.80;0.80;;;;;;;10.35;83.24;101633.91;6159100;23;20586;-72
2022/01/11 08:56:19;;;;;;;1.38;1.27;;;;;;;10.37;83.59;101631.78;6191620;23;20031;-72
2022/01/11 08:58:45;;;;;;;1.05;1.05;;;;;;;10.40;83.70;101642.25;6112318;23;20005;-71
2022/01/11 09:01:11;;;;;;;1.48;0.80;;;;;;;10.42;83.45;101645.56;6190592;23;20329;-74
2022/01/11 09:03:37;;;;;;;1.00;1.00;;;;;;;10.45;83.07;101645.09;6189529;23;20083;-73
2022/01/11 09:06:07;;;;;;;1.08;1.08;;;;;;;10.44;83.06;101646.16;6130541;23;20052;-74
2022/01/11 09:08:33;;;;;;;1.70;1.63;;;;;;;10.46;83.38;101646.75;6134618;23;20079;-73
2022/01/11 09:10:59;;;;;;;1.15;1.05;;;;;;;10.49;83.27;101662.69;6158351;23;20332;-73
2022/01/11 09:13:26;;;;;;;1.58;1.50;;;;;;;10.51;83.28;101657.00;6183009;23;20005;-72
2022/01/11 09:15:52;;;;;;;2.03;1.63;;;;;;;10.54;83.52;101670.19;6159457;23;20324;-72
2022/01/11 09:18:18;;;;;;;1.80;1.70;;;;;;;10.54;82.68;101667.47;6156885;23;20112;-73
2022/01/11 09:20:44;;;;;;;1.25;1.25;;;;;;;10.57;83.40;101665.09;6184242;23;20037;-73
2022/01/11 09:23:09;;;;;;;1.05;1.00;;;;;;;10.68;82.97;101679.03;6155815;23;20375;-71
2022/01/11 09:25:35;;;;;;;1.48;1.38;;;;;;;10.70;82.75;101683.16;6157621;23;20008;-73
2022/01/11 09:28:00;;;;;;;1.02;1.02;;;;;;;10.79;82.92;101680.91;6159045;23;20028;-72
2022/01/11 09:30:26;;;;;;;1.80;1.70;;;;;;;10.82;82.57;101685.94;6183148;23;20009;-73
2022/01/11 09:32:55;;;;;;;1.52;1.42;;;;;;;10.95;82.91;101693.91;6184241;23;20005;-72
2022/01/11 09:35:21;;;;;;;0.93;0.88;;;;;;;11.09;82.60;101696.41;6182323;23;20412;-72
2022/01/11 09:37:49;;;;;;;0.73;0.73;;;;;;;11.23;82.53;101694.25;6181786;23;20005;-72
2022/01/11 09:40:16;;;;;;;1.25;1.25;;;;;;;11.39;82.37;101703.63;6155527;23;20009;-72
2022/01/11 09:42:42;;;;;;;0.75;0.75;;;;;;;11.48;81.71;101702.22;6158178;23;20059;-73
2022/01/11 09:45:09;;;;;;;0.45;0.45;;;;;;;11.57;82.22;101708.97;6157469;23;19997;-74
2022/01/11 09:47:36;;;;;;;0.40;0.40;;;;;;;11.66;81.29;101710.25;6132533;23;20021;-72
2022/01/11 09:50:02;;;;;;;0.50;0.50;;;;;;;11.70;81.61;101696.91;6185163;23;20008;-74
2022/01/11 09:52:37;;;;;;;0.68;0.68;;;;;;;11.79;81.38;101705.59;6181080;23;20024;-74
2022/01/11 09:55:05;;;;;;;0.50;0.50;;;;;;;11.84;81.75;101711.16;6184308;23;20008;-72
2022/01/11 09:57:30;;;;;;;1.08;0.55;;;;;;;11.90;81.40;101707.47;6180111;23;20016;-74
2022/01/11 09:59:56;;;;;;;0.20;0.20;;;;;;;11.98;81.75;101715.31;6134291;23;20324;-73
2022/01/11 10:02:21;;;;;;;0.50;0.50;;;;;;;12.02;81.27;101716.50;6130863;23;20611;-73
2022/01/11 10:04:55;;;;;;;0.70;0.68;;;;;;;12.09;81.37;101715.53;6184040;23;20312;-71
2022/01/11 10:07:30;;;;;;;0.52;0.52;;;;;;;12.18;81.08;101725.03;6181959;23;20005;-70
2022/01/11 10:09:57;;;;;;;0.20;0.20;;;;;;;12.29;81.44;101721.38;6179136;23;20016;-71
2022/01/11 10:12:24;;;;;;;0.30;0.30;;;;;;;12.35;81.33;101720.44;6154691;23;20048;-70
2022/01/11 10:14:54;;;;;;;0.63;0.63;;;;;;;12.39;80.22;101726.25;6181051;23;20001;-71
2022/01/11 10:17:23;;;;;;;0.80;0.80;;;;;;;12.40;80.01;101727.91;6183408;23;20080;-72
2022/01/11 10:19:59;;;;;;;1.20;0.65;;;;;;;12.38;80.63;101736.38;6182606;23;20368;-72
2022/01/11 10:22:24;;;;;;;0.40;0.40;;;;;;;12.40;80.54;101744.38;6181211;23;20032;-73
2022/01/11 10:24:53;;;;;;;0.30;0.30;;;;;;;12.48;79.82;101751.38;6156898;23;20332;-73
2022/01/11 10:27:30;;;;;;;0.93;0.30;;;;;;;12.56;79.96;101743.56;6156398;23;20012;-72
2022/01/11 10:30:07;;;;;;;0.30;0.30;;;;;;;12.65;80.32;101743.16;6184536;23;20001;-72
2022/01/11 10:32:36;;;;;;;0.50;0.10;;;;;;;12.73;80.29;101742.75;6182336;23;20001;-73
2022/01/11 10:35:06;;;;;;;0.32;0.32;;;;;;;12.85;79.84;101745.41;6157868;23;20100;-72
2022/01/11 10:37:34;;;;;;;0.20;0.20;;;;;;;12.86;79.47;101747.09;6184079;23;20008;-72
2022/01/11 10:40:39;;;;;;;0.20;0.20;;;;;;;12.86;79.45;101747.09;6184031;23;20029;-73
2022/01/11 10:43:06;;;;;;;0.13;0.13;;;;;;;12.79;79.29;101736.28;6156774;23;20346;-72
2022/01/11 10:45:35;;;;;;;0.28;0.28;;;;;;;12.87;79.73;101754.25;6183497;23;20051;-73
2022/01/11 10:48:17;;;;;;;0.40;0.30;;;;;;;12.83;79.20;101750.31;6157602;23;20005;-71
2022/01/11 10:50:45;;;;;;;0.50;0.50;;;;;;;12.79;79.49;101751.91;6172358;23;20028;-72
2022/01/11 10:53:22;;;;;;;0.20;0.20;;;;;;;12.74;79.69;101760.88;6200556;23;20028;-73
2022/01/11 10:56:03;;;;;;;0.20;0.20;;;;;;;12.68;79.24;101759.97;6165194;23;20362;-72
2022/01/11 10:58:36;;;;;;;0.20;0.20;;;;;;;12.70;78.82;101766.06;6185282;23;20031;-72
2022/01/11 11:01:06;;;;;;;0.20;0.20;;;;;;;12.77;79.15;101767.78;6183520;23;20074;-73
2022/01/11 11:03:42;;;;;;;0.30;0.30;;;;;;;12.78;79.51;101761.22;6183288;23;20001;-73
2022/01/11 11:06:13;;;;;;;0.10;0.10;;;;;;;12.90;79.22;101759.22;6183943;23;20005;-73
2022/01/11 11:08:48;;;;;;;0.15;0.10;;;;;;;13.05;78.72;101758.66;6156796;23;20420;-72
2022/01/11 11:11:20;;;;;;;0.13;0.13;;;;;;;13.10;78.48;101770.53;6158294;23;20036;-72
2022/01/11 11:13:57;;;;;;;0.30;0.30;;;;;;;13.13;77.83;101771.13;6181275;23;20029;-72
2022/01/11 11:16:29;;;;;;;0.10;0.10;;;;;;;13.17;78.01;101769.53;6183462;23;20005;-72
2022/01/11 11:19:02;;;;;;;0.20;0.20;;;;;;;13.20;77.66;101763.53;6182617;23;20013;-73
2022/01/11 11:21:31;;;;;;;0.20;0.20;;;;;;;13.24;77.71;101759.22;6155621;23;20013;-73
2022/01/11 11:24:05;;;;;;;0.20;0.20;;;;;;;13.32;77.49;101760.72;6181924;23;20005;-72
2022/01/11 11:26:47;;;;;;;0.30;0.30;;;;;;;13.40;78.03;101763.06;6157273;23;20071;-72
2022/01/11 11:29:13;;;;;;;0.20;0.20;;;;;;;13.42;77.49;101758.16;6155703;23;20001;-72
2022/01/11 11:31:39;;;;;;;0.28;0.28;;;;;;;13.51;77.14;101770.38;6181102;23;20455;-72
2022/01/11 11:34:10;;;;;;;0.40;0.40;;;;;;;13.50;76.82;101768.69;6183465;23;20016;-72
2022/01/11 11:36:37;;;;;;;0.30;0.30;;;;;;;13.48;77.12;101764.53;6181925;23;19997;-73
2022/01/11 11:39:03;;;;;;;0.35;0.35;;;;;;;13.47;76.76;101766.47;6157238;23;20436;-73
2022/01/11 11:41:31;;;;;;;0.30;0.30;;;;;;;13.48;77.02;101764.53;6156226;23;20009;-73
2022/01/11 11:44:30;;;;;;;0.32;0.30;;;;;;;13.48;76.88;101770.03;6132757;23;20013;-73
2022/01/11 11:47:05;;;;;;;1.80;0.45;;;;;;;13.36;76.62;101773.72;6179030;23;20009;-72